Skip Navigation Links Skip Navigation Links

Current Weather

Custer, Monroe, Mich.

For information only: do not use for flight planning or navigation.
Latest weather
Observation time Saturday, October 19, 2019 6:40 AM EDT
Local time Saturday, October 19, 2019 6:51 AM EDT
Flight conditions Visual Meteorological Conditions
Winds
Wind speed calm
Visibility 10 mi.
Sky condition
Ceiling unlimited
Sky clear
Temperature 34°F
Dewpoint 31°F
Altimeter 30.00 in.Hg
Derived measurements
Relative humidity 88%
Wind chill 34°F
Density altitude -1107 ft.
Remarks
Fully automated report.
Automated weather observing station with precipitation discriminator.
METAR KTTF 191040Z AUTO 00000KT 10SM CLR 01/M01 A3000 RMK AO2 T00091008

Settings

Location code

InnerDrive.Weather 4.0.6770.0 Release CLR 4.0.30319.42000
Copyright ©2018 Inner Drive Technology. All rights reserved. Portions Copyright ©1986-2018 David Braverman.

Find weather

Site navigation


Skip Navigation Links

Place info

Page info

PayPal - The safer, easier way to pay online!

Return home.

Copyright ©2019 Inner Drive Technology. Purveyors of fine, hand-crafted computer software. Page printed 2019-10-19T10:51:33 UTC.